Napakiak, Alaska
Current Conditions -  °F | °C
As of 8:56 PM on Tuesday 21 Oct 2014 (Local Time) from PANA Reporting Station
Clear Clear  
Wind Chill: 10°   Ceiling: Unl
Heat Index: 21°   Visibility: 10mi
Dew Point: 19°   Wind: 10mph
Humidity: 92%   Direction: 20°NNE
Pressure: 29.5"   Gusts: NA
Location:  60.7°N, 161.95°W
Report Text: PANA 220456Z AUTO 02009KT 10SM CLR M06/M07 A2950 RMK AO2 SLP990 T10611072 FZRANO
Loading
Personal Weather Stations






























Interactive Weather Map
Tropical Storm Tracking
New forecast layout! Learn more

10-Day Weather Forecast

Advertisements
Track Severe Weather on mobile